createdAt,value
2018-08-11T00:00:29.234Z,101344.16
2018-08-11T00:02:58.246Z,101335.00
2018-08-11T00:05:27.513Z,101338.01
2018-08-11T00:07:56.810Z,101342.34
2018-08-11T00:10:25.930Z,101333.27
2018-08-11T00:12:55.007Z,101332.77
2018-08-11T00:15:24.119Z,101334.95
2018-08-11T00:17:53.197Z,101333.10
2018-08-11T00:20:25.306Z,101334.62
2018-08-11T00:22:54.422Z,101329.24
2018-08-11T00:25:23.550Z,101328.91
2018-08-11T00:27:53.087Z,101322.37
2018-08-11T00:30:22.788Z,101320.70
2018-08-11T00:32:51.863Z,101326.39
2018-08-11T00:35:21.196Z,101318.02
2018-08-11T00:37:50.426Z,101318.52
2018-08-11T00:40:20.407Z,101317.17
2018-08-11T00:42:50.713Z,101314.34
2018-08-11T00:45:20.165Z,101309.48
2018-08-11T00:47:50.198Z,101314.33
2018-08-11T00:50:22.766Z,101313.66
2018-08-11T00:52:52.418Z,101311.00
2018-08-11T00:55:21.727Z,101312.49
2018-08-11T00:57:51.450Z,101319.38
2018-08-11T01:00:21.178Z,101315.68
2018-08-11T01:02:50.646Z,101320.38
2018-08-11T01:05:21.206Z,101314.19
2018-08-11T01:07:51.294Z,101318.20
2018-08-11T01:10:21.170Z,101315.52
2018-08-11T01:12:50.537Z,101318.02
2018-08-11T01:15:21.546Z,101313.16
2018-08-11T01:17:52.630Z,101321.71
2018-08-11T01:20:21.854Z,101320.38
2018-08-11T01:22:51.839Z,101316.53
2018-08-11T01:25:21.526Z,101319.71
2018-08-11T01:27:51.006Z,101323.73
2018-08-11T01:30:21.751Z,101323.89
2018-08-11T01:32:51.465Z,101317.52
2018-08-11T01:35:20.757Z,101323.75
2018-08-11T01:37:50.088Z,101322.21
2018-08-11T01:40:19.347Z,101325.56
2018-08-11T01:42:49.290Z,101324.75
2018-08-11T01:45:19.176Z,101326.27
2018-08-11T01:47:48.465Z,101327.39
2018-08-11T01:50:17.771Z,101328.12
2018-08-11T01:52:48.140Z,101328.61
2018-08-11T01:55:18.526Z,101326.59
2018-08-11T01:57:48.358Z,101326.59
2018-08-11T02:00:21.140Z,101325.41
2018-08-11T02:02:50.416Z,101332.11
2018-08-11T02:05:19.674Z,101336.77
2018-08-11T02:07:48.634Z,101338.42
2018-08-11T02:10:20.836Z,101340.28
2018-08-11T02:12:50.229Z,101338.26
2018-08-11T02:15:19.730Z,101344.33
2018-08-11T02:17:49.130Z,101337.38
2018-08-11T02:20:20.192Z,101348.52
2018-08-11T02:22:50.339Z,101359.06
2018-08-11T02:25:20.512Z,101364.20
2018-08-11T02:27:49.792Z,101356.22
2018-08-11T02:30:19.494Z,101367.54
2018-08-11T02:32:48.962Z,101373.08
2018-08-11T02:35:18.407Z,101368.88
2018-08-11T02:37:47.373Z,101377.76
2018-08-11T02:40:17.227Z,101385.32
2018-08-11T02:42:46.386Z,101391.87
2018-08-11T02:45:17.542Z,101400.34
2018-08-11T02:47:48.459Z,101398.52
2018-08-11T02:50:17.939Z,101403.53
2018-08-11T02:52:47.495Z,101403.55
2018-08-11T02:55:16.608Z,101404.66
2018-08-11T02:57:46.440Z,101398.32
2018-08-11T03:00:16.394Z,101386.73
2018-08-11T03:02:45.354Z,101390.25
2018-08-11T03:05:14.786Z,101401.16
2018-08-11T03:07:44.721Z,101401.92
2018-08-11T03:10:13.979Z,101405.32
2018-08-11T03:12:43.089Z,101402.15
2018-08-11T03:15:13.037Z,101399.47
2018-08-11T03:17:42.654Z,101402.31
2018-08-11T03:20:13.345Z,101406.16
2018-08-11T03:22:43.027Z,101403.84
2018-08-11T03:25:12.235Z,101408.36
2018-08-11T03:27:41.378Z,101407.86
2018-08-11T03:30:10.356Z,101406.68
2018-08-11T03:32:40.233Z,101399.64
2018-08-11T03:35:09.643Z,101411.16
2018-08-11T03:37:38.951Z,101412.20
2018-08-11T03:40:09.725Z,101404.97
2018-08-11T03:42:39.394Z,101412.83
2018-08-11T03:45:09.721Z,101418.34
2018-08-11T03:47:38.822Z,101414.52
2018-08-11T03:50:08.373Z,101417.03
2018-08-11T03:52:38.137Z,101419.86
2018-08-11T03:55:07.358Z,101426.11
2018-08-11T03:57:36.454Z,101429.63
2018-08-11T04:00:08.646Z,101432.80
2018-08-11T04:02:37.912Z,101430.92
2018-08-11T04:05:07.235Z,101430.09
2018-08-11T04:07:36.462Z,101436.91
2018-08-11T04:10:06.343Z,101428.55
2018-08-11T04:12:35.294Z,101434.16
2018-08-11T04:15:04.458Z,101434.85
2018-08-11T04:17:39.089Z,101431.82
2018-08-11T04:20:10.429Z,101437.34
2018-08-11T04:22:39.479Z,101433.98
2018-08-11T04:25:09.235Z,101433.82
2018-08-11T04:27:38.882Z,101440.00
2018-08-11T04:30:10.138Z,101445.17
2018-08-11T04:32:39.156Z,101451.41
2018-08-11T04:35:08.554Z,101455.71
2018-08-11T04:37:38.444Z,101455.87
2018-08-11T04:40:07.488Z,101460.73
2018-08-11T04:42:36.724Z,101454.64
2018-08-11T04:45:06.742Z,101461.13
2018-08-11T04:47:35.983Z,101465.02
2018-08-11T04:50:05.562Z,101469.22
2018-08-11T04:52:34.798Z,101467.09
2018-08-11T04:55:04.921Z,101463.50
2018-08-11T04:57:34.231Z,101461.49
2018-08-11T05:00:03.922Z,101466.88
2018-08-11T05:02:33.603Z,101466.95
2018-08-11T05:05:02.926Z,101472.80
2018-08-11T05:07:32.362Z,101480.30
2018-08-11T05:10:01.281Z,101474.86
2018-08-11T05:12:30.277Z,101481.09
2018-08-11T05:14:59.498Z,101487.07
2018-08-11T05:17:28.959Z,101486.07
2018-08-11T05:19:58.916Z,101491.08
2018-08-11T05:22:28.009Z,101489.62
2018-08-11T05:24:57.350Z,101488.66
2018-08-11T05:27:26.335Z,101487.22
2018-08-11T05:29:55.478Z,101501.86
2018-08-11T05:32:24.583Z,101502.87
2018-08-11T05:34:54.542Z,101505.74
2018-08-11T05:37:23.603Z,101505.63
2018-08-11T05:39:52.512Z,101507.52
2018-08-11T05:42:21.575Z,101509.37
2018-08-11T05:44:51.127Z,101515.56
2018-08-11T05:47:20.166Z,101510.52
2018-08-11T05:49:49.467Z,101512.37
2018-08-11T05:52:18.636Z,101513.09
2018-08-11T05:54:47.565Z,101512.44
2018-08-11T05:57:16.796Z,101517.05
2018-08-11T05:59:46.095Z,101519.53
2018-08-11T06:02:15.131Z,101519.56
2018-08-11T06:04:44.463Z,101517.38
2018-08-11T06:07:13.422Z,101523.59
2018-08-11T06:09:42.690Z,101521.67
2018-08-11T06:12:11.622Z,101523.69
2018-08-11T06:14:40.656Z,101524.30
2018-08-11T06:17:09.719Z,101522.28
2018-08-11T06:19:39.138Z,101520.73
2018-08-11T06:22:08.114Z,101527.99
2018-08-11T06:24:37.058Z,101530.17
2018-08-11T06:27:06.582Z,101529.82
2018-08-11T06:29:35.817Z,101532.00
2018-08-11T06:32:05.259Z,101533.52
2018-08-11T06:34:34.443Z,101537.22
2018-08-11T06:37:03.519Z,101548.22
2018-08-11T06:39:32.442Z,101546.50
2018-08-11T06:42:01.688Z,101544.89
2018-08-11T06:44:30.819Z,101552.59
2018-08-11T06:46:59.908Z,101554.95
2018-08-11T06:49:29.458Z,101558.63
2018-08-11T06:51:58.690Z,101561.99
2018-08-11T06:54:27.977Z,101567.00
2018-08-11T06:56:57.099Z,101568.34
2018-08-11T06:59:26.011Z,101570.39
2018-08-11T07:01:56.148Z,101561.83
2018-08-11T07:04:25.502Z,101568.56
2018-08-11T07:06:54.791Z,101565.05
2018-08-11T07:09:23.973Z,101555.34
2018-08-11T07:11:53.526Z,101565.44
2018-08-11T07:14:22.577Z,101574.48
2018-08-11T07:16:52.115Z,101570.70
2018-08-11T07:19:21.795Z,101566.75
2018-08-11T07:21:50.909Z,101571.97
2018-08-11T07:24:19.870Z,101575.83
2018-08-11T07:26:49.097Z,101574.47
2018-08-11T07:29:18.603Z,101581.86
2018-08-11T07:31:47.982Z,101580.16
2018-08-11T07:34:17.022Z,101581.20
2018-08-11T07:36:46.254Z,101576.45
2018-08-11T07:39:15.094Z,101579.11
2018-08-11T07:41:45.374Z,101572.62
2018-08-11T07:44:14.403Z,101576.37
2018-08-11T07:46:43.565Z,101577.94
2018-08-11T07:49:13.461Z,101581.59
2018-08-11T07:51:42.713Z,101587.69
2018-08-11T07:54:11.942Z,101583.39
2018-08-11T07:56:41.309Z,101583.16
2018-08-11T07:59:10.491Z,101583.10
2018-08-11T08:01:39.724Z,101584.88
2018-08-11T08:04:08.812Z,101591.02
2018-08-11T08:06:38.106Z,101591.42
2018-08-11T08:09:11.802Z,101594.82
2018-08-11T08:11:42.165Z,101591.98
2018-08-11T08:14:12.454Z,101600.39
2018-08-11T08:16:41.652Z,101593.44
2018-08-11T08:19:10.774Z,101590.20
2018-08-11T08:21:40.543Z,101587.30
2018-08-11T08:24:10.284Z,101591.89
2018-08-11T08:26:39.909Z,101589.41
2018-08-11T08:29:08.987Z,101590.94
2018-08-11T08:31:38.482Z,101593.31
2018-08-11T08:34:07.592Z,101590.16
2018-08-11T08:36:36.713Z,101583.47
2018-08-11T08:39:09.656Z,101602.45
2018-08-11T08:41:39.636Z,101596.74
2018-08-11T08:44:09.115Z,101592.30
2018-08-11T08:46:38.169Z,101586.03
2018-08-11T08:49:07.151Z,101577.21
2018-08-11T08:51:36.827Z,101585.73
2018-08-11T08:54:06.124Z,101586.70
2018-08-11T08:56:35.222Z,101588.48
2018-08-11T08:59:04.224Z,101585.77
2018-08-11T09:01:34.654Z,101592.47
2018-08-11T09:04:03.935Z,101583.24
2018-08-11T09:06:33.224Z,101589.05
2018-08-11T09:09:02.300Z,101583.09
2018-08-11T09:11:31.386Z,101589.33
2018-08-11T09:14:00.472Z,101588.41
2018-08-11T09:16:29.599Z,101583.30
2018-08-11T09:18:59.123Z,101578.69
2018-08-11T09:21:28.174Z,101585.84
2018-08-11T09:23:57.690Z,101593.61
2018-08-11T09:26:26.818Z,101586.25
2018-08-11T09:28:56.646Z,101569.65
2018-08-11T09:31:25.557Z,101572.27
2018-08-11T09:33:55.884Z,101572.41
2018-08-11T09:36:25.373Z,101588.50
2018-08-11T09:38:54.956Z,101575.18
2018-08-11T09:41:24.050Z,101582.55
2018-08-11T09:43:53.354Z,101578.57
2018-08-11T09:46:23.456Z,101586.89
2018-08-11T09:48:52.538Z,101583.81
2018-08-11T09:51:22.268Z,101588.34
2018-08-11T09:53:51.320Z,101593.09
2018-08-11T09:56:20.431Z,101583.53
2018-08-11T09:58:49.550Z,101585.39
2018-08-11T10:01:24.107Z,101580.91
2018-08-11T10:03:53.233Z,101581.48
2018-08-11T10:06:22.343Z,101585.50
2018-08-11T10:08:51.433Z,101577.31
2018-08-11T10:11:20.558Z,101578.00
2018-08-11T10:13:49.586Z,101582.19
2018-08-11T10:16:19.280Z,101572.72
2018-08-11T10:18:48.891Z,101570.77
2018-08-11T10:21:18.170Z,101571.19
2018-08-11T10:23:47.254Z,101561.30
2018-08-11T10:26:16.566Z,101560.41
2018-08-11T10:28:45.897Z,101554.89
2018-08-11T10:31:15.353Z,101546.19
2018-08-11T10:33:44.674Z,101554.73
2018-08-11T10:36:13.714Z,101548.45
2018-08-11T10:38:42.876Z,101547.30
2018-08-11T10:41:11.923Z,101544.33
2018-08-11T10:43:41.014Z,101531.84
2018-08-11T10:46:10.115Z,101543.16
2018-08-11T10:48:39.226Z,101540.68
2018-08-11T10:51:08.527Z,101535.20
2018-08-11T10:53:38.061Z,101549.12
2018-08-11T10:56:07.279Z,101549.77
2018-08-11T10:58:36.665Z,101545.66
2018-08-11T11:01:05.682Z,101547.66
2018-08-11T11:03:34.632Z,101543.57
2018-08-11T11:06:04.079Z,101554.62
2018-08-11T11:08:33.293Z,101546.59
2018-08-11T11:11:02.688Z,101543.62
2018-08-11T11:13:33.274Z,101551.07
2018-08-11T11:16:02.550Z,101552.77
2018-08-11T11:18:31.742Z,101546.28
2018-08-11T11:21:01.758Z,101543.62
2018-08-11T11:23:38.233Z,101546.72
2018-08-11T11:26:09.037Z,101538.25
2018-08-11T11:31:21.137Z,101542.27
2018-08-11T11:33:50.719Z,101534.49
2018-08-11T11:36:27.370Z,101532.05
2018-08-11T11:38:58.505Z,101534.89
2018-08-11T11:41:27.511Z,101525.92
2018-08-11T11:43:57.491Z,101524.88
2018-08-11T11:46:26.615Z,101531.13
2018-08-11T11:48:55.723Z,101540.28
2018-08-11T11:51:25.351Z,101536.86
2018-08-11T11:53:57.392Z,101531.75
2018-08-11T11:56:27.733Z,101533.84
2018-08-11T11:59:00.628Z,101526.56
2018-08-11T12:01:30.176Z,101528.22
2018-08-11T12:04:03.435Z,101534.41
2018-08-11T12:06:34.571Z,101527.06
2018-08-11T12:09:03.670Z,101531.66
2018-08-11T12:11:32.585Z,101532.67
2018-08-11T12:14:01.526Z,101532.89
2018-08-11T12:16:30.470Z,101530.58
2018-08-11T12:18:59.415Z,101532.61
2018-08-11T12:21:30.811Z,101530.27
2018-08-11T12:24:03.909Z,101525.94
2018-08-11T12:26:35.663Z,101521.22
2018-08-11T12:29:05.521Z,101521.21
2018-08-11T12:31:34.698Z,101526.81
2018-08-11T12:34:03.954Z,101521.87
2018-08-11T12:36:34.240Z,101521.02
2018-08-11T12:39:12.503Z,101514.89
2018-08-11T12:41:46.066Z,101504.97
2018-08-11T12:44:20.905Z,101514.73
2018-08-11T12:49:45.795Z,101522.23
2018-08-11T12:52:14.725Z,101519.52
2018-08-11T12:54:43.646Z,101515.16
2018-08-11T12:57:12.686Z,101516.20
2018-08-11T12:59:41.643Z,101509.89
2018-08-11T13:02:10.594Z,101510.53
2018-08-11T13:04:39.514Z,101507.52
2018-08-11T13:07:08.537Z,101505.82
2018-08-11T13:09:37.427Z,101501.23
2018-08-11T13:12:06.953Z,101505.48
2018-08-11T13:14:36.239Z,101507.41
2018-08-11T13:17:05.242Z,101506.08
2018-08-11T13:19:34.166Z,101502.30
2018-08-11T13:22:03.008Z,101503.17
2018-08-11T13:24:32.018Z,101488.83
2018-08-11T13:27:00.953Z,101499.75
2018-08-11T13:29:29.951Z,101482.42
2018-08-11T13:31:58.919Z,101487.47
2018-08-11T13:34:27.917Z,101494.92
2018-08-11T13:36:56.848Z,101487.64
2018-08-11T13:39:25.795Z,101487.34
2018-08-11T13:41:54.747Z,101472.95
2018-08-11T13:44:23.696Z,101464.77
2018-08-11T13:46:53.114Z,101467.97
2018-08-11T13:49:22.068Z,101470.23
2018-08-11T13:51:51.146Z,101471.66
2018-08-11T13:54:21.603Z,101462.28
2018-08-11T13:56:50.552Z,101461.19
2018-08-11T13:59:19.918Z,101464.34
2018-08-11T14:01:49.462Z,101456.81
2018-08-11T14:04:18.984Z,101454.40
2018-08-11T14:06:48.050Z,101455.62
2018-08-11T14:09:16.986Z,101448.29
2018-08-11T14:11:46.118Z,101453.85
2018-08-11T14:14:15.197Z,101451.14
2018-08-11T14:16:44.511Z,101451.92
2018-08-11T14:19:13.618Z,101451.69
2018-08-11T14:21:42.963Z,101440.79
2018-08-11T14:24:11.965Z,101435.95
2018-08-11T14:26:40.892Z,101438.49
2018-08-11T14:29:10.026Z,101441.61
2018-08-11T14:31:39.071Z,101436.91
2018-08-11T14:34:08.588Z,101433.00
2018-08-11T14:36:37.570Z,101435.81
2018-08-11T14:39:08.182Z,101437.65
2018-08-11T14:41:37.175Z,101445.37
2018-08-11T14:44:06.378Z,101386.70
2018-08-11T14:46:35.286Z,101431.81
2018-08-11T14:49:04.465Z,101434.39
2018-08-11T14:51:33.406Z,101427.36
2018-08-11T14:54:02.352Z,101427.10
2018-08-11T14:56:31.334Z,101433.03
2018-08-11T14:59:00.278Z,101429.37
2018-08-11T15:01:29.241Z,101436.77
2018-08-11T15:03:58.183Z,101433.90
2018-08-11T15:06:27.104Z,101433.84
2018-08-11T15:08:56.054Z,101433.52
2018-08-11T15:11:25.047Z,101438.42
2018-08-11T15:13:53.996Z,101425.62
2018-08-11T15:16:22.971Z,101426.86
2018-08-11T15:18:51.871Z,101427.81
2018-08-11T15:21:20.821Z,101418.33
2018-08-11T15:23:49.826Z,101427.47
2018-08-11T15:26:19.271Z,101425.00
2018-08-11T15:28:48.390Z,101421.53
2018-08-11T15:31:17.351Z,101418.58
2018-08-11T15:33:46.387Z,101415.06
2018-08-11T15:36:15.384Z,101418.30
2018-08-11T15:38:44.299Z,101418.82
2018-08-11T15:41:13.275Z,101420.14
2018-08-11T15:43:42.186Z,101411.60
2018-08-11T15:46:11.162Z,101407.42
2018-08-11T15:48:40.226Z,101405.23
2018-08-11T15:51:09.147Z,101412.72
2018-08-11T15:53:38.115Z,101403.50
2018-08-11T15:56:07.095Z,101411.96
2018-08-11T15:58:36.043Z,101400.06
2018-08-11T16:01:05.067Z,101401.52
2018-08-11T16:03:34.663Z,101411.30
2018-08-11T16:06:03.620Z,101404.02
2018-08-11T16:08:32.644Z,101396.65
2018-08-11T16:11:01.666Z,101401.74
2018-08-11T16:13:30.670Z,101406.74
2018-08-11T16:15:59.634Z,101399.13
2018-08-11T16:18:28.591Z,101402.88
2018-08-11T16:20:57.582Z,101405.19
2018-08-11T16:23:26.555Z,101399.47
2018-08-11T16:25:55.466Z,101400.41
2018-08-11T16:28:24.422Z,101404.83
2018-08-11T16:30:53.845Z,101409.27
2018-08-11T16:33:22.784Z,101409.14
2018-08-11T16:35:51.942Z,101412.23
2018-08-11T16:38:21.613Z,101407.13
2018-08-11T16:40:50.808Z,101405.46
2018-08-11T16:43:19.806Z,101403.16
2018-08-11T16:45:48.771Z,101407.73
2018-08-11T16:48:17.808Z,101404.94
2018-08-11T16:50:46.794Z,101402.72
2018-08-11T16:53:15.711Z,101406.97
2018-08-11T16:55:44.706Z,101400.28
2018-08-11T16:58:13.714Z,101401.48
2018-08-11T17:00:42.685Z,101403.34
2018-08-11T17:03:11.645Z,101400.83
2018-08-11T17:05:40.609Z,101398.31
2018-08-11T17:08:09.566Z,101400.78
2018-08-11T17:10:39.264Z,101392.13
2018-08-11T17:13:08.220Z,101395.48
2018-08-11T17:15:37.210Z,101396.49
2018-08-11T17:18:06.278Z,101395.98
2018-08-11T17:20:35.280Z,101397.23
2018-08-11T17:23:04.331Z,101391.05
2018-08-11T17:25:34.033Z,101395.18
2018-08-11T17:28:02.983Z,101388.77
2018-08-11T17:30:32.136Z,101391.62
2018-08-11T17:33:01.109Z,101392.75
2018-08-11T17:35:30.202Z,101394.45
2018-08-11T17:37:59.209Z,101396.11
2018-08-11T17:40:28.371Z,101389.58
2018-08-11T17:42:57.664Z,101390.50
2018-08-11T17:45:26.595Z,101389.33
2018-08-11T17:47:55.686Z,101389.95
2018-08-11T17:50:25.838Z,101390.99
2018-08-11T17:52:55.486Z,101397.78
2018-08-11T17:55:24.933Z,101390.42
2018-08-11T17:57:54.471Z,101395.69
2018-08-11T18:00:23.929Z,101397.11
2018-08-11T18:02:53.366Z,101392.76
2018-08-11T18:05:22.710Z,101395.63
2018-08-11T18:07:52.691Z,101390.98
2018-08-11T18:10:23.272Z,101396.92
2018-08-11T18:12:52.888Z,101394.41
2018-08-11T18:15:22.479Z,101391.20
2018-08-11T18:17:53.161Z,101389.50
2018-08-11T18:20:24.114Z,101390.20
2018-08-11T18:23:03.231Z,101388.34
2018-08-11T18:25:49.504Z,101390.98
2018-08-11T18:28:38.280Z,101386.49
2018-08-11T18:31:20.594Z,101390.89
2018-08-11T18:34:07.503Z,101389.28
2018-08-11T18:39:40.617Z,101390.93
2018-08-11T18:42:10.121Z,101390.08
2018-08-11T18:44:39.684Z,101396.06
2018-08-11T18:47:11.300Z,101396.46
2018-08-11T18:49:40.790Z,101395.38
2018-08-11T18:52:10.356Z,101403.50
2018-08-11T18:54:39.694Z,101403.25
2018-08-11T18:57:09.147Z,101402.75
2018-08-11T18:59:38.811Z,101403.25
2018-08-11T19:02:08.217Z,101397.81
2018-08-11T19:04:37.690Z,101405.91
2018-08-11T19:07:07.175Z,101407.57
2018-08-11T19:09:36.637Z,101409.50
2018-08-11T19:12:06.243Z,101408.70
2018-08-11T19:14:35.917Z,101420.30
2018-08-11T19:17:05.433Z,101421.38
2018-08-11T19:19:35.582Z,101415.92
2018-08-11T19:22:05.002Z,101420.28
2018-08-11T19:24:34.532Z,101420.30
2018-08-11T19:27:03.806Z,101425.11
2018-08-11T19:29:33.139Z,101421.48
2018-08-11T19:32:02.497Z,101422.86
2018-08-11T19:34:31.795Z,101425.61
2018-08-11T19:37:01.150Z,101424.14
2018-08-11T19:39:30.499Z,101423.64
2018-08-11T19:42:00.569Z,101426.59
2018-08-11T19:44:29.867Z,101428.49
2018-08-11T19:46:59.287Z,101423.50
2018-08-11T19:49:28.886Z,101426.73
2018-08-11T19:51:58.337Z,101424.58
2018-08-11T19:54:27.707Z,101420.63
2018-08-11T19:56:56.648Z,101430.98
2018-08-11T19:59:25.758Z,101421.78
2018-08-11T20:01:54.710Z,101419.41
2018-08-11T20:04:23.726Z,101421.94
2018-08-11T20:06:53.162Z,101425.55
2018-08-11T20:09:22.138Z,101422.42
2018-08-11T20:11:51.292Z,101425.19
2018-08-11T20:14:20.288Z,101426.04
2018-08-11T20:16:49.241Z,101428.46
2018-08-11T20:19:19.060Z,101426.78
2018-08-11T20:21:47.887Z,101416.34
2018-08-11T20:24:17.833Z,101424.56
2018-08-11T20:26:47.362Z,101418.17
2018-08-11T20:29:16.447Z,101427.92
2018-08-11T20:31:45.448Z,101427.63
2018-08-11T20:34:15.178Z,101420.58
2018-08-11T20:36:44.168Z,101421.27
2018-08-11T20:39:14.299Z,101421.45
2018-08-11T20:41:43.278Z,101426.48
2018-08-11T20:44:12.271Z,101426.34
2018-08-11T20:46:41.342Z,101425.31
2018-08-11T20:49:10.347Z,101420.78
2018-08-11T20:51:39.429Z,101421.97
2018-08-11T20:54:08.558Z,101425.83
2018-08-11T20:56:37.561Z,101425.67
2018-08-11T20:59:06.540Z,101425.66
2018-08-11T21:01:35.552Z,101420.47
2018-08-11T21:04:04.694Z,101421.13
2018-08-11T21:06:33.854Z,101429.70
2018-08-11T21:09:02.934Z,101426.62
2018-08-11T21:11:31.988Z,101430.48
2018-08-11T21:14:00.988Z,101426.11
2018-08-11T21:16:29.999Z,101428.63
2018-08-11T21:18:59.110Z,101428.30
2018-08-11T21:21:28.338Z,101422.74
2018-08-11T21:23:57.647Z,101431.42
2018-08-11T21:26:26.654Z,101431.27
2018-08-11T21:28:55.641Z,101429.63
2018-08-11T21:31:24.868Z,101429.92
2018-08-11T21:33:54.630Z,101428.53
2018-08-11T21:36:23.742Z,101423.72
2018-08-11T21:38:52.736Z,101422.21
2018-08-11T21:41:21.765Z,101419.17
2018-08-11T21:43:51.267Z,101419.19
2018-08-11T21:46:20.559Z,101416.64
2018-08-11T21:48:49.815Z,101416.77
2018-08-11T21:51:18.930Z,101416.91
2018-08-11T21:53:48.450Z,101412.03
2018-08-11T21:56:17.722Z,101412.58
2018-08-11T21:58:46.794Z,101416.63
2018-08-11T22:01:16.738Z,101417.96
2018-08-11T22:03:46.735Z,101405.03
2018-08-11T22:06:15.991Z,101407.37
2018-08-11T22:08:45.567Z,101412.61
2018-08-11T22:11:14.745Z,101415.09
2018-08-11T22:13:44.040Z,101412.39
2018-08-11T22:16:13.604Z,101411.34
2018-08-11T22:18:42.847Z,101411.98
2018-08-11T22:21:12.424Z,101413.20
2018-08-11T22:23:41.375Z,101401.91
2018-08-11T22:26:10.497Z,101410.08
2018-08-11T22:28:39.854Z,101412.42
2018-08-11T22:31:09.449Z,101395.80
2018-08-11T22:33:38.726Z,101402.63
2018-08-11T22:36:07.962Z,101402.30
2018-08-11T22:38:37.053Z,101400.29
2018-08-11T22:41:07.298Z,101400.82
2018-08-11T22:43:36.636Z,101401.82
2018-08-11T22:46:06.142Z,101401.09
2018-08-11T22:48:35.520Z,101405.39
2018-08-11T22:51:05.024Z,101400.47
2018-08-11T22:53:34.661Z,101399.56
2018-08-11T22:56:03.991Z,101393.59
2018-08-11T22:58:33.913Z,101396.11
2018-08-11T23:01:03.051Z,101389.89
2018-08-11T23:03:32.511Z,101390.28
2018-08-11T23:06:01.592Z,101385.28
2018-08-11T23:08:30.722Z,101386.67
2018-08-11T23:11:00.019Z,101378.26
2018-08-11T23:13:29.549Z,101384.66
2018-08-11T23:15:58.803Z,101381.33
2018-08-11T23:18:27.758Z,101378.44
2018-08-11T23:20:57.889Z,101378.53
2018-08-11T23:23:27.155Z,101374.70
2018-08-11T23:25:56.434Z,101383.27
2018-08-11T23:28:26.294Z,101370.53
2018-08-11T23:30:55.853Z,101371.06
2018-08-11T23:33:25.110Z,101372.50
2018-08-11T23:35:54.080Z,101364.69
2018-08-11T23:38:23.869Z,101362.48
2018-08-11T23:40:53.228Z,101364.09
2018-08-11T23:43:22.915Z,101363.24
2018-08-11T23:45:52.060Z,101364.47
2018-08-11T23:48:21.481Z,101365.23
2018-08-11T23:50:50.863Z,101374.19
2018-08-11T23:53:19.914Z,101366.34
2018-08-11T23:55:50.287Z,101366.08
2018-08-11T23:58:19.646Z,101359.64
